Flight Track Log - Related Links

Times and Time Zones

All times are in EDT time to prevent confusion due to time zone crossing. See the CHQ6101 flight status page for this flight to view local times or setup timezone preferences in your user account.


Time Position Orientation Groundspeed Altitude Reporting Facility
EDT Latitude Longitude Course Direction KTS MPH feet Rate Location/Type
Mon 01:56:10 PM 40.7381 -73.8367 27° Northeast 168 193 27,000  Level Boston Center
Mon 01:57:12 PM 40.7536 -73.7783 71° East 214 246 3,900 -10,195 Descending Boston Center
Mon 01:58:00 PM 41.0387 -73.6510 28° Northeast  Level FlightAware Approximate
Mon 01:58:13 PM 40.8178 -73.7392 25° Northeast 248 285 6,100  Level Boston Center
Mon 01:59:00 PM 41.1321 -73.5842 28° Northeast  Level FlightAware Approximate
Mon 01:59:15 PM 40.8853 -73.6967 25° Northeast 262 302 8,800  Level Boston Center
Mon 02:00:00 PM 41.2209 -73.5068 33° Northeast  Level FlightAware Approximate
Mon 02:00:16 PM 40.9531 -73.6528 26° Northeast 269 310 10,900  Level Boston Center
Mon 02:01:00 PM 41.3126 -73.4360 27° Northeast  Level FlightAware Approximate
Mon 02:01:18 PM 41.0450 -73.5931 26° Northeast 301 346 13,100  Level Boston Center
Mon 02:02:19 PM 41.1244 -73.5431 25° Northeast 312 359 14,900 1,805 Climbing Boston Center
Mon 02:03:21 PM 41.2122 -73.4869 26° Northeast 325 374 16,800 1,694 Climbing Boston Center
Mon 02:04:23 PM 41.2961 -73.4325 26° Northeast 330 380 18,400 1,610 Climbing Boston Center
Mon 02:05:24 PM 41.3764 -73.3819 25° Northeast 333 383 20,100 1,512 Climbing Boston Center
Mon 02:06:26 PM 41.4672 -73.3475 16° North 343 395 21,500 1,171 Climbing Boston Center
Mon 02:07:27 PM 41.5758 -73.3478 360° North 360 414 22,500 1,033 Climbing Boston Center
Mon 02:08:28 PM 41.6814 -73.3458 North 376 433 23,600 1,024 Climbing Boston Center
Mon 02:09:30 PM 41.7894 -73.3461 360° North 384 442 24,600 927 Climbing Boston Center
Mon 02:10:31 PM 41.8981 -73.3461 360° North 387 445 25,500 927 Climbing Boston Center
Mon 02:11:33 PM 42.0072 -73.3464 360° North 390 449 26,500 732 Climbing Boston Center
Mon 02:12:34 PM 42.1111 -73.2961 20° North 409 471 27,000 244 Climbing Boston Center
Mon 02:13:36 PM 42.1950 -73.1814 45° Northeast 429 494 27,000  Level Boston Center
Mon 02:14:37 PM 42.2942 -73.0275 49° Northeast 454 522 27,000  Level Boston Center
Mon 02:15:39 PM 42.3728 -72.9042 49° Northeast 458 527 27,000  Level Boston Center
Mon 02:16:40 PM 42.4575 -72.7714 49° Northeast 463 533 27,000  Level Boston Center
Mon 02:17:41 PM 42.5414 -72.6389 49° Northeast 462 532 27,000  Level Boston Center
Mon 02:18:43 PM 42.6342 -72.4919 49° Northeast 470 541 27,000  Level Boston Center
Mon 02:19:44 PM 42.7203 -72.3575 49° Northeast 472 543 27,000  Level Boston Center
Mon 02:20:46 PM 42.8131 -72.2075 50° Northeast 473 544 27,000  Level Boston Center
Mon 02:21:47 PM 42.8978 -72.0717 50° Northeast 474 545 27,000  Level Boston Center
Mon 02:22:48 PM 42.9831 -71.9336 50° Northeast 475 547 27,000  Level Boston Center
Mon 02:23:50 PM 43.0678 -71.7953 50° Northeast 476 548 27,000  Level Boston Center
Mon 02:24:51 PM 43.1536 -71.6564 50° Northeast 477 549 27,000  Level Boston Center
Mon 02:25:52 PM 43.2394 -71.5181 50° Northeast 477 549 27,000  Level Boston Center
Mon 02:26:54 PM 43.3242 -71.3789 50° Northeast 477 549 27,000  Level Boston Center
Mon 02:27:55 PM 43.4250 -71.2106 50° Northeast 477 549 27,000  Level Boston Center
Mon 02:28:56 PM 43.5100 -71.0700 50° Northeast 477 549 27,000  Level Boston Center
Mon 02:29:58 PM 43.5939 -70.9289 51° Northeast 477 549 27,000  Level Boston Center
Mon 02:30:59 PM 43.6714 -70.7994 50° Northeast 477 549 27,000 -344 Level Boston Center
Mon 02:32:00 PM 43.7558 -70.6569 51° Northeast 477 549 26,300 -1,171 Descending Boston Center
Mon 02:33:02 PM 43.8550 -70.4897 51° Northeast 468 539 24,600 -1,561 Descending Boston Center
Mon 02:34:03 PM 43.9356 -70.3539 50° Northeast 457 526 23,100 -1,475 Descending Boston Center
Mon 02:35:04 PM 44.0158 -70.2181 51° Northeast 456 525 21,600 -1,475 Descending Boston Center
Mon 02:36:05 PM 44.0964 -70.0833 50° Northeast 454 522 20,100 -1,463 Descending Boston Center
Mon 02:37:07 PM 44.1756 -69.9431 52° Northeast 449 517 18,600 -1,561 Descending Boston Center
Mon 02:38:08 PM 44.2494 -69.8144 51° Northeast 424 488 16,900 -2,016 Descending Boston Center
Mon 02:39:09 PM 44.3247 -69.6844 51° Northeast 400 460 14,500 -2,098 Descending Boston Center
Mon 02:40:11 PM 44.3925 -69.5886 45° Northeast 392 451 12,600 -1,707 Descending Boston Center
Mon 02:41:12 PM 44.4653 -69.4950 43° Northeast 367 422 11,000 -1,525 Descending Boston Center
Mon 02:42:13 PM 44.5269 -69.4156 43° Northeast 315 362 9,500 -1,854 Descending Boston Center
Mon 02:43:15 PM 44.5967 -69.3253 43° Northeast 291 335 7,200 -2,049 Descending Boston Center
Mon 02:44:16 PM 44.6519 -69.2506 44° Northeast 283 326 5,300 -1,820 Descending Boston Center
Mon 02:45:17 PM 44.7081 -69.1775 43° Northeast 281 323 3,500 -1,122 Descending Boston Center
Mon 02:46:19 PM 44.7631 -69.1039 44° Northeast 277 319 3,000 -244 Descending Boston Center
Mon 02:47:20 PM 44.8178 -69.0308 43° Northeast 274 315 3,000 -341 Level Boston Center
Mon 02:48:22 PM 44.8672 -68.9625 44° Northeast 254 292 2,300 -732 Descending Boston Center
Mon 02:49:23 PM 44.8556 -68.8978 104° East 199 229 1,500 -885 Descending Boston Center
Mon 02:50:24 PM 44.8286 -68.8592 135° Southeast 160 184 500 -634 Descending Boston Center
Mon 02:51:26 PM 44.7978 -68.8167 136° Southeast 151 174 200 -290 Descending Boston Center

Login

Don't have an account? Register now (free) for customized features, flight alerts, and more!